Etusivu
METAR-TAF:

METAR-TAF

Lentoasemat :

Sapporo, Japani

Leveyspiiri: 43-07N, Pituuspiiri: 141-23E, korkeus merenpinnasta: 8 m

Tämänhetkinen sää

Tämä raportti tehtiin 8 tuntia ja 21 minuuttia sitten, kello 12.00 UTC
Tuuli 5 kn idästä/kaakosta
Lämpötila 21°C
Kosteus 83%
Ilmanpaine 1010 hPa
Näkyvyys 10 km tai enemmän
Hajanaisia pilviä 10000 ft:n korkeudessa

METAR: RJCO 261200Z 11005KT 9999 SCT100 21/18 Q1010

Aika: 05:21 (20:21 UTC)


TAF: puuttuu

Säähavainnot ja -ennusteet yli 4000 lentoasemalta (METAR- ja TAF-raportit).

Käytössä olevat sääasemat on merkitty karttaan keltaisilla ja punaisilla pisteillä.

Aseta hiiri pisteen päälle nähdäksesi sääaseman nimen.

Klikkaa sitten nähdäksesi säähavainnot ja -ennusteet.

Kartan vaihtaminen: klikkaa mustalla rastilla varustettuja vihreitä pisteitä, niin voit zoomata sisään; viivalla varustettua vihreää pistettä, niin voit zoomata ulos tai vihreitä nuolia, niin pääset viereisille kartoille.


METAR-TAF: